createdAt,value
2022-08-25T00:02:21.995Z,6.50
2022-08-25T00:04:53.900Z,5.53
2022-08-25T00:07:23.843Z,5.40
2022-08-25T00:09:52.288Z,7.27
2022-08-25T00:12:21.004Z,6.47
2022-08-25T00:14:49.433Z,6.87
2022-08-25T00:17:17.869Z,6.27
2022-08-25T00:19:46.692Z,13.70
2022-08-25T00:22:15.203Z,6.37
2022-08-25T00:24:45.042Z,9.17
2022-08-25T00:27:13.549Z,14.10
2022-08-25T00:29:41.992Z,7.43
2022-08-25T00:32:10.484Z,7.77
2022-08-25T00:34:39.995Z,7.90
2022-08-25T00:37:10.109Z,7.90
2022-08-25T00:39:40.347Z,7.97
2022-08-25T00:42:16.177Z,7.23
2022-08-25T00:44:45.297Z,6.50
2022-08-25T00:47:13.916Z,8.27
2022-08-25T00:49:47.244Z,9.13
2022-08-25T00:52:18.884Z,8.40
2022-08-25T00:54:51.102Z,6.13
2022-08-25T00:57:34.540Z,8.10
2022-08-25T01:00:06.167Z,10.47
2022-08-25T01:02:34.754Z,9.33
2022-08-25T01:05:03.259Z,10.70
2022-08-25T01:07:31.819Z,11.10
2022-08-25T01:10:01.832Z,7.63
2022-08-25T01:12:31.775Z,8.13
2022-08-25T01:15:02.109Z,9.97
2022-08-25T01:17:36.096Z,10.47
2022-08-25T01:20:05.790Z,6.93
2022-08-25T01:22:35.595Z,7.63
2022-08-25T01:25:13.337Z,11.63
2022-08-25T01:27:41.756Z,10.47
2022-08-25T01:30:11.077Z,10.87
2022-08-25T01:32:39.552Z,10.37
2022-08-25T01:35:08.754Z,9.40
2022-08-25T01:37:38.607Z,11.27
2022-08-25T01:40:07.931Z,7.80
2022-08-25T01:42:44.109Z,9.20
2022-08-25T01:45:12.613Z,11.43
2022-08-25T01:47:41.085Z,8.43
2022-08-25T01:50:10.128Z,10.57
2022-08-25T01:52:50.815Z,11.10
2022-08-25T01:55:19.482Z,8.13
2022-08-25T01:57:47.909Z,7.63
2022-08-25T02:00:18.628Z,9.77
2022-08-25T02:02:52.262Z,8.27
2022-08-25T02:05:24.052Z,8.73
2022-08-25T02:07:54.673Z,9.33
2022-08-25T02:10:24.008Z,10.57
2022-08-25T02:12:54.480Z,8.20
2022-08-25T02:15:23.248Z,11.67
2022-08-25T02:17:51.743Z,9.37
2022-08-25T02:20:20.231Z,7.47
2022-08-25T02:22:51.194Z,8.27
2022-08-25T02:25:26.888Z,7.90
2022-08-25T02:27:55.743Z,9.27
2022-08-25T02:30:24.578Z,9.53
2022-08-25T02:32:53.109Z,14.00
2022-08-25T02:35:21.703Z,14.33
2022-08-25T02:37:52.652Z,7.33
2022-08-25T02:40:23.394Z,12.23
2022-08-25T02:42:55.467Z,10.50
2022-08-25T02:45:23.975Z,9.43
2022-08-25T02:47:52.736Z,14.20
2022-08-25T02:50:21.633Z,12.07
2022-08-25T02:52:50.684Z,11.27
2022-08-25T02:55:20.038Z,9.97
2022-08-25T02:57:48.852Z,11.60
2022-08-25T03:00:19.487Z,12.90
2022-08-25T03:02:48.295Z,12.33
2022-08-25T03:05:17.505Z,12.83
2022-08-25T03:07:46.024Z,11.73
2022-08-25T03:10:18.377Z,11.70
2022-08-25T03:12:47.698Z,11.80
2022-08-25T03:15:18.876Z,14.90
2022-08-25T03:17:50.506Z,13.27
2022-08-25T03:20:19.892Z,11.70
2022-08-25T03:22:48.805Z,10.40
2022-08-25T03:25:34.779Z,10.80
2022-08-25T03:28:03.969Z,12.07
2022-08-25T03:30:34.063Z,13.37
2022-08-25T03:33:02.504Z,10.63
2022-08-25T03:35:31.093Z,9.33
2022-08-25T03:38:00.340Z,8.50
2022-08-25T03:40:29.080Z,8.50
2022-08-25T03:42:57.567Z,13.47
2022-08-25T03:45:26.499Z,12.00
2022-08-25T03:47:56.708Z,12.07
2022-08-25T03:50:26.039Z,10.40
2022-08-25T03:52:56.005Z,8.33
2022-08-25T03:55:26.199Z,8.67
2022-08-25T03:57:55.942Z,10.20
2022-08-25T04:00:24.953Z,10.77
2022-08-25T04:02:53.420Z,8.87
2022-08-25T04:05:23.275Z,10.53
2022-08-25T04:07:55.827Z,13.03
2022-08-25T04:10:24.344Z,12.70
2022-08-25T04:12:52.800Z,8.43
2022-08-25T04:15:21.384Z,9.20
2022-08-25T04:17:51.882Z,9.93
2022-08-25T04:20:20.765Z,10.47
2022-08-25T04:22:50.532Z,10.63
2022-08-25T04:25:19.238Z,10.30
2022-08-25T04:27:48.304Z,9.87
2022-08-25T04:30:16.908Z,12.67
2022-08-25T04:32:45.363Z,11.63
2022-08-25T04:35:13.811Z,18.53
2022-08-25T04:37:42.427Z,11.50
2022-08-25T04:40:13.462Z,13.80
2022-08-25T04:42:41.895Z,16.67
2022-08-25T04:45:10.582Z,11.57
2022-08-25T04:47:39.784Z,13.20
2022-08-25T04:50:09.341Z,11.70
2022-08-25T04:52:38.039Z,12.20
2022-08-25T04:55:07.408Z,11.77
2022-08-25T04:57:37.544Z,14.07
2022-08-25T05:00:08.166Z,12.47
2022-08-25T05:02:36.799Z,12.07
2022-08-25T05:05:06.980Z,12.57
2022-08-25T05:07:35.395Z,13.30
2022-08-25T05:10:04.113Z,19.53
2022-08-25T05:12:33.267Z,15.70
2022-08-25T05:15:25.771Z,14.80
2022-08-25T05:17:56.077Z,14.67
2022-08-25T05:20:25.528Z,17.23
2022-08-25T05:22:53.957Z,14.70
2022-08-25T05:25:22.413Z,16.60
2022-08-25T05:27:50.982Z,14.80
2022-08-25T05:30:21.030Z,14.80
2022-08-25T05:32:49.455Z,15.60
2022-08-25T05:35:19.446Z,12.10
2022-08-25T05:37:48.251Z,16.47
2022-08-25T05:40:16.832Z,13.63
2022-08-25T05:42:45.283Z,16.37
2022-08-25T05:45:20.282Z,17.13
2022-08-25T05:47:50.577Z,15.40
2022-08-25T05:50:19.532Z,15.07
2022-08-25T05:52:47.987Z,11.97
2022-08-25T05:55:16.633Z,11.40
2022-08-25T05:57:45.188Z,12.27
2022-08-25T06:00:14.264Z,10.80
2022-08-25T06:02:43.782Z,12.13
2022-08-25T06:05:16.827Z,19.77
2022-08-25T06:07:45.419Z,12.90
2022-08-25T06:10:15.432Z,11.53
2022-08-25T06:12:45.671Z,14.63
2022-08-25T06:15:16.011Z,9.30
2022-08-25T06:17:44.698Z,12.73
2022-08-25T06:20:18.344Z,26.70
2022-08-25T06:22:49.276Z,14.47
2022-08-25T06:25:20.242Z,23.80
2022-08-25T06:27:49.504Z,10.93
2022-08-25T06:30:24.373Z,13.40
2022-08-25T06:32:57.362Z,10.83
2022-08-25T06:35:28.062Z,10.03
2022-08-25T06:37:56.645Z,11.33
2022-08-25T06:40:26.068Z,8.77
2022-08-25T06:42:54.595Z,6.00
2022-08-25T06:45:23.432Z,6.33
2022-08-25T06:47:52.792Z,7.60
2022-08-25T06:50:21.585Z,6.83
2022-08-25T06:52:52.095Z,8.30
2022-08-25T06:55:20.543Z,5.23
2022-08-25T06:57:49.019Z,5.80
2022-08-25T07:00:18.023Z,7.97
2022-08-25T07:02:47.064Z,9.50
2022-08-25T07:05:26.972Z,12.13
2022-08-25T07:08:04.005Z,9.90
2022-08-25T07:10:32.528Z,7.40
2022-08-25T07:13:02.409Z,17.97
2022-08-25T07:15:30.865Z,9.43
2022-08-25T07:17:59.383Z,4.47
2022-08-25T07:20:29.228Z,7.47
2022-08-25T07:22:57.960Z,5.18
2022-08-25T07:25:27.883Z,5.03
2022-08-25T07:27:58.866Z,7.22
2022-08-25T07:30:28.123Z,6.15
2022-08-25T07:32:56.579Z,3.47
2022-08-25T07:35:26.258Z,8.45
2022-08-25T07:37:57.916Z,8.13
2022-08-25T07:40:29.750Z,15.32
2022-08-25T07:43:00.041Z,2.65
2022-08-25T07:45:31.322Z,6.35
2022-08-25T07:48:01.468Z,3.58
2022-08-25T07:50:31.265Z,5.70
2022-08-25T07:53:00.382Z,6.40
2022-08-25T07:55:30.443Z,5.65
2022-08-25T07:57:59.738Z,8.52
2022-08-25T08:00:30.146Z,3.45
2022-08-25T08:02:59.523Z,7.05
2022-08-25T08:05:29.187Z,4.18
2022-08-25T08:07:58.396Z,6.30
2022-08-25T08:11:03.332Z,7.57
2022-08-25T08:13:18.620Z,3.47
2022-08-25T08:15:48.223Z,5.07
2022-08-25T08:18:16.884Z,3.60
2022-08-25T08:20:48.811Z,12.27
2022-08-25T08:23:18.123Z,9.07
2022-08-25T08:25:46.818Z,3.15
2022-08-25T08:28:15.345Z,6.13
2022-08-25T08:30:52.965Z,5.68
2022-08-25T08:33:24.556Z,6.55
2022-08-25T08:36:01.078Z,4.95
2022-08-25T08:38:34.936Z,13.50
2022-08-25T08:41:54.238Z,11.27
2022-08-25T08:44:33.263Z,6.95
2022-08-25T08:47:08.890Z,4.97
2022-08-25T08:49:47.398Z,5.95
2022-08-25T08:52:18.652Z,3.65
2022-08-25T08:54:56.025Z,3.63
2022-08-25T08:57:28.430Z,5.80
2022-08-25T09:00:02.320Z,5.80
2022-08-25T09:02:39.230Z,7.18
2022-08-25T09:05:21.035Z,8.30
2022-08-25T09:07:55.113Z,7.30
2022-08-25T09:10:27.825Z,5.40
2022-08-25T09:13:05.708Z,12.00
2022-08-25T09:16:09.083Z,11.38
2022-08-25T09:18:52.567Z,3.15
2022-08-25T09:21:32.005Z,11.18
2022-08-25T09:24:14.057Z,2.45
2022-08-25T09:26:51.565Z,3.17
2022-08-25T09:29:23.103Z,4.22
2022-08-25T09:31:58.442Z,8.43
2022-08-25T09:34:32.933Z,5.47
2022-08-25T09:37:01.574Z,15.48
2022-08-25T09:39:30.314Z,7.03
2022-08-25T09:42:00.883Z,4.13
2022-08-25T09:44:33.494Z,5.13
2022-08-25T09:47:05.323Z,2.55
2022-08-25T09:49:44.751Z,3.40
2022-08-25T09:52:27.728Z,2.65
2022-08-25T09:54:57.363Z,6.55
2022-08-25T09:57:35.647Z,6.05
2022-08-25T10:00:16.735Z,5.45
2022-08-25T10:02:47.188Z,2.83
2022-08-25T10:05:23.362Z,2.80
2022-08-25T10:07:55.534Z,4.55
2022-08-25T10:10:32.460Z,7.95
2022-08-25T10:13:03.447Z,4.45
2022-08-25T10:15:38.651Z,6.75
2022-08-25T10:18:26.121Z,8.23
2022-08-25T10:21:12.745Z,3.33
2022-08-25T10:23:48.335Z,6.68
2022-08-25T10:26:27.200Z,3.90
2022-08-25T10:29:07.342Z,6.00
2022-08-25T10:31:41.287Z,4.32
2022-08-25T10:34:35.856Z,7.05
2022-08-25T10:37:13.480Z,5.32
2022-08-25T10:39:46.478Z,5.63
2022-08-25T10:42:37.053Z,2.00
2022-08-25T10:45:35.468Z,3.47
2022-08-25T10:48:43.031Z,4.82
2022-08-25T10:51:27.996Z,5.05
2022-08-25T10:54:05.600Z,2.67
2022-08-25T10:56:40.751Z,4.35
2022-08-25T10:59:29.923Z,1.83
2022-08-25T11:02:30.696Z,2.58
2022-08-25T11:05:04.093Z,4.65
2022-08-25T11:07:38.012Z,3.35
2022-08-25T11:10:11.458Z,4.15
2022-08-25T11:12:44.048Z,4.13
2022-08-25T11:15:19.004Z,4.32
2022-08-25T11:17:52.939Z,1.73
2022-08-25T11:20:27.633Z,5.78
2022-08-25T11:23:09.149Z,3.33
2022-08-25T11:25:44.381Z,5.53
2022-08-25T11:28:17.231Z,4.90
2022-08-25T11:30:46.418Z,8.10
2022-08-25T11:33:17.611Z,9.43
2022-08-25T11:35:54.511Z,1.70
2022-08-25T11:38:38.055Z,3.80
2022-08-25T11:41:18.815Z,2.40
2022-08-25T11:44:02.504Z,4.38
2022-08-25T11:46:45.478Z,5.32
2022-08-25T11:49:36.255Z,3.00
2022-08-25T11:52:07.398Z,1.70
2022-08-25T11:54:41.776Z,2.70
2022-08-25T11:57:22.503Z,4.22
2022-08-25T12:00:09.878Z,1.58
2022-08-25T12:02:42.585Z,1.90
2022-08-25T12:05:33.320Z,5.15
2022-08-25T12:08:23.688Z,3.38
2022-08-25T12:11:01.326Z,2.50
2022-08-25T12:13:44.060Z,6.43
2022-08-25T12:16:39.679Z,4.60
2022-08-25T12:19:30.162Z,3.10
2022-08-25T12:22:38.401Z,8.77
2022-08-25T12:25:11.631Z,11.10
2022-08-25T12:27:49.707Z,2.85
2022-08-25T12:30:21.871Z,9.55
2022-08-25T12:33:08.224Z,15.85
2022-08-25T12:35:41.048Z,4.97
2022-08-25T12:38:15.735Z,12.07
2022-08-25T12:40:59.457Z,2.63
2022-08-25T12:43:33.450Z,2.00
2022-08-25T12:46:42.974Z,4.85
2022-08-25T12:49:31.347Z,3.92
2022-08-25T12:52:03.424Z,5.28
2022-08-25T12:54:43.488Z,1.60
2022-08-25T12:57:41.267Z,1.30
2022-08-25T13:00:18.799Z,3.25
2022-08-25T13:03:26.032Z,2.53
2022-08-25T13:06:19.931Z,2.92
2022-08-25T13:09:21.540Z,2.40
2022-08-25T13:11:57.583Z,4.95
2022-08-25T13:14:37.740Z,1.75
2022-08-25T13:17:07.458Z,1.40
2022-08-25T13:19:38.612Z,5.40
2022-08-25T13:22:17.567Z,3.50
2022-08-25T13:24:50.557Z,4.78
2022-08-25T13:27:23.419Z,5.05
2022-08-25T13:29:53.699Z,2.65
2022-08-25T13:32:32.140Z,2.33
2022-08-25T13:35:17.718Z,2.15
2022-08-25T13:37:50.324Z,2.53
2022-08-25T13:40:26.062Z,4.03
2022-08-25T13:42:57.608Z,2.38
2022-08-25T13:45:28.757Z,6.95
2022-08-25T13:47:58.583Z,4.07
2022-08-25T13:50:34.089Z,4.55
2022-08-25T13:53:07.076Z,5.88
2022-08-25T13:55:51.610Z,2.67
2022-08-25T13:58:24.396Z,5.22
2022-08-25T14:01:23.516Z,2.97
2022-08-25T14:04:01.418Z,7.53
2022-08-25T14:06:30.056Z,3.95
2022-08-25T14:09:16.016Z,7.32
2022-08-25T14:11:47.864Z,2.70
2022-08-25T14:14:32.527Z,3.33
2022-08-25T14:17:21.502Z,1.60
2022-08-25T14:19:50.603Z,4.80
2022-08-25T14:22:19.052Z,3.28
2022-08-25T14:24:48.924Z,4.72
2022-08-25T14:27:19.034Z,3.78
2022-08-25T14:29:52.273Z,2.40
2022-08-25T14:32:21.429Z,4.18
2022-08-25T14:34:49.907Z,3.55
2022-08-25T14:37:20.472Z,5.00
2022-08-25T14:39:55.394Z,5.15
2022-08-25T14:42:25.364Z,3.28
2022-08-25T14:44:54.808Z,4.15
2022-08-25T14:47:25.336Z,2.70
2022-08-25T14:49:53.834Z,2.40
2022-08-25T14:52:26.603Z,3.33
2022-08-25T14:54:57.524Z,3.15
2022-08-25T14:57:26.468Z,2.83
2022-08-25T14:59:55.162Z,2.40
2022-08-25T15:02:30.574Z,6.03
2022-08-25T15:05:05.707Z,2.33
2022-08-25T15:07:53.136Z,1.58
2022-08-25T15:10:23.251Z,2.53
2022-08-25T15:12:53.881Z,5.03
2022-08-25T15:15:26.270Z,3.55
2022-08-25T15:17:55.317Z,4.65
2022-08-25T15:20:26.612Z,3.65
2022-08-25T15:22:55.036Z,6.55
2022-08-25T15:25:24.881Z,2.53
2022-08-25T15:27:53.835Z,2.47
2022-08-25T15:30:23.034Z,2.20
2022-08-25T15:33:00.303Z,3.97
2022-08-25T15:35:29.409Z,3.13
2022-08-25T15:37:58.010Z,6.20
2022-08-25T15:40:28.244Z,3.63
2022-08-25T15:42:57.515Z,2.75
2022-08-25T15:45:27.209Z,3.08
2022-08-25T15:47:55.786Z,3.45
2022-08-25T15:50:26.175Z,3.80
2022-08-25T15:52:54.897Z,3.10
2022-08-25T15:55:23.351Z,2.88
2022-08-25T15:57:53.369Z,8.15
2022-08-25T16:00:22.957Z,2.10
2022-08-25T16:02:52.416Z,3.00
2022-08-25T16:05:25.657Z,6.93
2022-08-25T16:07:54.705Z,6.05
2022-08-25T16:10:23.749Z,2.15
2022-08-25T16:12:53.612Z,4.60
2022-08-25T16:15:23.809Z,3.03
2022-08-25T16:17:57.140Z,4.82
2022-08-25T16:20:26.203Z,3.92
2022-08-25T16:22:54.640Z,6.10
2022-08-25T16:25:23.858Z,2.63
2022-08-25T16:27:53.706Z,4.13
2022-08-25T16:30:22.501Z,2.05
2022-08-25T16:32:51.002Z,3.42
2022-08-25T16:35:19.755Z,3.33
2022-08-25T16:37:50.260Z,4.25
2022-08-25T16:40:22.555Z,3.30
2022-08-25T16:42:53.082Z,2.70
2022-08-25T16:45:22.079Z,2.20
2022-08-25T16:47:50.834Z,2.28
2022-08-25T16:50:19.312Z,4.97
2022-08-25T16:53:08.102Z,4.43
2022-08-25T16:55:39.260Z,4.25
2022-08-25T16:58:13.358Z,5.55
2022-08-25T17:00:44.757Z,2.92
2022-08-25T17:03:13.691Z,2.83
2022-08-25T17:05:43.464Z,3.75
2022-08-25T17:08:30.973Z,2.60
2022-08-25T17:11:08.208Z,6.28
2022-08-25T17:13:40.263Z,5.20
2022-08-25T17:16:14.599Z,5.07
2022-08-25T17:18:43.621Z,7.35
2022-08-25T17:21:23.853Z,3.65
2022-08-25T17:23:54.149Z,4.38
2022-08-25T17:26:27.824Z,6.85
2022-08-25T17:28:59.735Z,4.35
2022-08-25T17:31:30.849Z,5.40
2022-08-25T17:33:59.815Z,6.70
2022-08-25T17:36:28.477Z,2.80
2022-08-25T17:38:57.326Z,4.30
2022-08-25T17:41:26.557Z,4.25
2022-08-25T17:43:55.095Z,6.07
2022-08-25T17:46:25.448Z,4.85
2022-08-25T17:48:54.647Z,9.38
2022-08-25T17:51:23.919Z,3.88
2022-08-25T17:53:52.804Z,7.25
2022-08-25T17:56:23.556Z,5.20
2022-08-25T17:58:55.063Z,7.13
2022-08-25T18:01:26.954Z,6.40
2022-08-25T18:03:57.296Z,7.20
2022-08-25T18:06:26.814Z,7.55
2022-08-25T18:08:59.277Z,9.15
2022-08-25T18:11:30.099Z,5.05
2022-08-25T18:13:59.019Z,5.63
2022-08-25T18:16:29.569Z,4.95
2022-08-25T18:18:57.996Z,7.03
2022-08-25T18:21:30.292Z,6.05
2022-08-25T18:24:00.073Z,5.65
2022-08-25T18:26:28.615Z,7.18
2022-08-25T18:28:57.099Z,5.95
2022-08-25T18:31:25.671Z,5.15
2022-08-25T18:33:55.508Z,11.38
2022-08-25T18:36:23.960Z,4.55
2022-08-25T18:39:11.405Z,5.75
2022-08-25T18:41:45.032Z,4.38
2022-08-25T18:44:15.653Z,7.03
2022-08-25T18:46:45.597Z,10.48
2022-08-25T18:49:17.216Z,7.90
2022-08-25T18:51:46.588Z,7.65
2022-08-25T18:54:23.297Z,9.60
2022-08-25T18:56:53.913Z,6.78
2022-08-25T18:59:23.649Z,8.52
2022-08-25T19:01:53.814Z,7.45
2022-08-25T19:04:31.431Z,8.23
2022-08-25T19:07:00.955Z,6.75
2022-08-25T19:09:30.593Z,8.95
2022-08-25T19:11:59.798Z,16.50
2022-08-25T19:14:28.536Z,12.05
2022-08-25T19:16:57.999Z,10.18
2022-08-25T19:19:28.144Z,9.65
2022-08-25T19:21:58.085Z,8.93
2022-08-25T19:24:28.519Z,16.97
2022-08-25T19:26:58.235Z,17.73
2022-08-25T19:29:26.683Z,16.00
2022-08-25T19:32:01.021Z,14.27
2022-08-25T19:34:34.827Z,15.67
2022-08-25T19:37:05.797Z,16.97
2022-08-25T19:39:35.300Z,14.07
2022-08-25T19:42:08.413Z,12.83
2022-08-25T19:44:56.859Z,16.30
2022-08-25T19:47:25.959Z,16.57
2022-08-25T19:49:55.795Z,17.47
2022-08-25T19:52:24.909Z,18.43
2022-08-25T19:54:55.330Z,20.27
2022-08-25T19:57:28.190Z,18.53
2022-08-25T20:00:15.432Z,15.70
2022-08-25T20:02:44.010Z,18.50
2022-08-25T20:05:14.340Z,21.63
2022-08-25T20:07:44.228Z,19.03
2022-08-25T20:10:14.566Z,22.93
2022-08-25T20:12:45.431Z,34.00
2022-08-25T20:15:16.620Z,32.13
2022-08-25T20:17:46.007Z,26.57
2022-08-25T20:20:18.689Z,33.57
2022-08-25T20:22:48.065Z,29.90
2022-08-25T20:25:17.697Z,29.00
2022-08-25T20:27:49.667Z,31.40
2022-08-25T20:30:22.124Z,36.43
2022-08-25T20:32:51.200Z,31.37
2022-08-25T20:35:26.830Z,29.93
2022-08-25T20:37:56.581Z,27.40
2022-08-25T20:40:27.826Z,31.73
2022-08-25T20:42:57.866Z,31.53
2022-08-25T20:45:26.512Z,22.57
2022-08-25T20:47:54.972Z,21.97
2022-08-25T20:50:24.769Z,26.47
2022-08-25T20:52:56.704Z,19.80
2022-08-25T20:55:27.668Z,20.37
2022-08-25T20:57:56.100Z,17.50
2022-08-25T21:00:25.151Z,20.50
2022-08-25T21:02:54.106Z,20.53
2022-08-25T21:05:24.336Z,19.20
2022-08-25T21:07:53.065Z,20.63
2022-08-25T21:10:21.752Z,17.80
2022-08-25T21:12:53.403Z,20.93
2022-08-25T21:15:22.168Z,21.47
2022-08-25T21:17:53.161Z,19.53
2022-08-25T21:20:25.900Z,23.63
2022-08-25T21:22:54.772Z,18.07
2022-08-25T21:25:23.583Z,23.83
2022-08-25T21:27:52.018Z,18.23
2022-08-25T21:30:20.906Z,19.00
2022-08-25T21:32:52.702Z,20.00
2022-08-25T21:35:22.545Z,20.03
2022-08-25T21:37:53.239Z,18.13
2022-08-25T21:40:23.282Z,20.90
2022-08-25T21:42:51.966Z,16.53
2022-08-25T21:45:21.903Z,15.30
2022-08-25T21:47:51.810Z,20.93
2022-08-25T21:50:21.443Z,20.00
2022-08-25T21:52:54.352Z,24.17
2022-08-25T21:55:24.473Z,23.67
2022-08-25T21:57:54.687Z,18.23
2022-08-25T22:00:23.968Z,19.47
2022-08-25T22:02:52.867Z,29.73
2022-08-25T22:05:21.347Z,14.90
2022-08-25T22:07:50.349Z,21.17
2022-08-25T22:10:21.024Z,11.83
2022-08-25T22:12:52.871Z,16.67
2022-08-25T22:15:23.268Z,17.73
2022-08-25T22:17:52.099Z,10.57
2022-08-25T22:20:20.701Z,16.37
2022-08-25T22:22:49.234Z,12.10
2022-08-25T22:25:18.456Z,13.23
2022-08-25T22:27:47.983Z,13.30
2022-08-25T22:30:29.630Z,12.23
2022-08-25T22:32:59.417Z,10.77
2022-08-25T22:35:28.685Z,7.93
2022-08-25T22:37:57.124Z,13.60
2022-08-25T22:40:26.797Z,16.47
2022-08-25T22:42:57.577Z,13.13
2022-08-25T22:45:28.819Z,11.80
2022-08-25T22:47:57.736Z,10.80
2022-08-25T22:50:26.929Z,10.50
2022-08-25T22:52:55.578Z,8.40
2022-08-25T22:55:24.300Z,12.37
2022-08-25T22:57:56.680Z,7.10
2022-08-25T23:00:25.495Z,9.97
2022-08-25T23:02:55.747Z,9.33
2022-08-25T23:05:24.498Z,10.90
2022-08-25T23:07:52.935Z,12.93
2022-08-25T23:10:22.757Z,7.53
2022-08-25T23:12:51.538Z,14.37
2022-08-25T23:15:20.088Z,5.47
2022-08-25T23:17:48.611Z,6.33
2022-08-25T23:20:36.542Z,11.43
2022-08-25T23:23:14.875Z,11.27
2022-08-25T23:25:43.370Z,9.50
2022-08-25T23:28:11.797Z,23.77
2022-08-25T23:30:42.850Z,6.07
2022-08-25T23:33:15.429Z,9.40
2022-08-25T23:35:50.111Z,5.00
2022-08-25T23:38:18.542Z,7.40
2022-08-25T23:40:47.121Z,8.93
2022-08-25T23:43:15.824Z,7.23
2022-08-25T23:45:44.410Z,8.40
2022-08-25T23:48:12.963Z,7.43
2022-08-25T23:50:54.219Z,5.33
2022-08-25T23:53:22.846Z,6.43
2022-08-25T23:55:53.913Z,4.67
2022-08-25T23:58:22.799Z,6.83
